sensor_id;sensor_type;location;lat;lon;timestamp;P1;durP1;ratioP1;P2;durP2;ratioP2
37647;SDS011;23490;53.656;10.076;2023-03-31T00:01:25;18.45;;;4.85;;
37647;SDS011;23490;53.656;10.076;2023-03-31T00:03:50;17.90;;;5.38;;
37647;SDS011;23490;53.656;10.076;2023-03-31T00:06:16;22.02;;;5.88;;
37647;SDS011;23490;53.656;10.076;2023-03-31T00:08:45;23.50;;;6.15;;
37647;SDS011;23490;53.656;10.076;2023-03-31T00:11:15;26.75;;;5.70;;
37647;SDS011;23490;53.656;10.076;2023-03-31T00:13:40;24.95;;;6.47;;
37647;SDS011;23490;53.656;10.076;2023-03-31T00:16:08;24.85;;;7.07;;
37647;SDS011;23490;53.656;10.076;2023-03-31T00:18:34;18.33;;;5.47;;
37647;SDS011;23490;53.656;10.076;2023-03-31T00:23:58;18.85;;;5.32;;
37647;SDS011;23490;53.656;10.076;2023-03-31T00:26:25;17.55;;;5.60;;
37647;SDS011;23490;53.656;10.076;2023-03-31T00:28:52;19.90;;;5.45;;
37647;SDS011;23490;53.656;10.076;2023-03-31T00:31:18;24.88;;;5.85;;
37647;SDS011;23490;53.656;10.076;2023-03-31T00:33:44;19.35;;;5.20;;
37647;SDS011;23490;53.656;10.076;2023-03-31T00:36:10;23.45;;;6.28;;
37647;SDS011;23490;53.656;10.076;2023-03-31T00:38:36;25.58;;;5.07;;
37647;SDS011;23490;53.656;10.076;2023-03-31T00:41:01;26.23;;;4.78;;
37647;SDS011;23490;53.656;10.076;2023-03-31T00:43:33;18.55;;;5.38;;
37647;SDS011;23490;53.656;10.076;2023-03-31T00:46:10;17.33;;;4.28;;
37647;SDS011;23490;53.656;10.076;2023-03-31T00:48:46;19.55;;;5.28;;
37647;SDS011;23490;53.656;10.076;2023-03-31T00:51:16;22.83;;;5.30;;
37647;SDS011;23490;53.656;10.076;2023-03-31T00:53:45;16.02;;;4.72;;
37647;SDS011;23490;53.656;10.076;2023-03-31T00:56:19;16.27;;;4.38;;
37647;SDS011;23490;53.656;10.076;2023-03-31T00:58:48;12.52;;;4.22;;
37647;SDS011;23490;53.656;10.076;2023-03-31T01:01:16;19.35;;;4.03;;
37647;SDS011;23490;53.656;10.076;2023-03-31T01:03:44;19.35;;;4.05;;
37647;SDS011;23490;53.656;10.076;2023-03-31T01:06:12;17.30;;;4.00;;
37647;SDS011;23490;53.656;10.076;2023-03-31T01:08:41;19.98;;;3.03;;
37647;SDS011;23490;53.656;10.076;2023-03-31T01:11:08;18.85;;;3.30;;
37647;SDS011;23490;53.656;10.076;2023-03-31T01:13:36;15.70;;;3.50;;
37647;SDS011;23490;53.656;10.076;2023-03-31T01:16:03;21.70;;;3.85;;
37647;SDS011;23490;53.656;10.076;2023-03-31T01:18:30;14.65;;;2.70;;
37647;SDS011;23490;53.656;10.076;2023-03-31T01:21:06;22.52;;;3.40;;
37647;SDS011;23490;53.656;10.076;2023-03-31T01:27:09;17.55;;;4.47;;
37647;SDS011;23490;53.656;10.076;2023-03-31T01:32:45;15.48;;;3.55;;
37647;SDS011;23490;53.656;10.076;2023-03-31T01:35:34;25.60;;;4.05;;
37647;SDS011;23490;53.656;10.076;2023-03-31T01:38:15;14.48;;;3.17;;
37647;SDS011;23490;53.656;10.076;2023-03-31T01:41:07;16.48;;;4.10;;
37647;SDS011;23490;53.656;10.076;2023-03-31T01:46:23;11.75;;;3.08;;
37647;SDS011;23490;53.656;10.076;2023-03-31T01:48:58;17.25;;;2.78;;
37647;SDS011;23490;53.656;10.076;2023-03-31T01:56:54;11.60;;;2.97;;
37647;SDS011;23490;53.656;10.076;2023-03-31T01:59:31;15.15;;;3.45;;
37647;SDS011;23490;53.656;10.076;2023-03-31T02:02:18;14.48;;;3.00;;
37647;SDS011;23490;53.656;10.076;2023-03-31T02:04:52;13.77;;;3.03;;
37647;SDS011;23490;53.656;10.076;2023-03-31T02:07:25;13.57;;;3.78;;
37647;SDS011;23490;53.656;10.076;2023-03-31T02:09:56;19.00;;;3.58;;
37647;SDS011;23490;53.656;10.076;2023-03-31T02:12:26;21.52;;;3.45;;
37647;SDS011;23490;53.656;10.076;2023-03-31T02:14:55;14.38;;;3.00;;
37647;SDS011;23490;53.656;10.076;2023-03-31T02:17:24;15.32;;;2.75;;
37647;SDS011;23490;53.656;10.076;2023-03-31T02:19:55;17.52;;;3.53;;
37647;SDS011;23490;53.656;10.076;2023-03-31T02:22:25;15.87;;;2.53;;
37647;SDS011;23490;53.656;10.076;2023-03-31T02:24:53;20.90;;;3.97;;
37647;SDS011;23490;53.656;10.076;2023-03-31T02:27:24;20.63;;;3.67;;
37647;SDS011;23490;53.656;10.076;2023-03-31T02:29:52;12.73;;;2.88;;
37647;SDS011;23490;53.656;10.076;2023-03-31T02:35:02;17.38;;;2.63;;
37647;SDS011;23490;53.656;10.076;2023-03-31T02:37:28;11.77;;;2.75;;
37647;SDS011;23490;53.656;10.076;2023-03-31T02:39:55;17.60;;;3.70;;
37647;SDS011;23490;53.656;10.076;2023-03-31T02:42:23;20.25;;;4.25;;
37647;SDS011;23490;53.656;10.076;2023-03-31T02:44:49;14.40;;;2.88;;
37647;SDS011;23490;53.656;10.076;2023-03-31T02:47:15;13.50;;;4.10;;
37647;SDS011;23490;53.656;10.076;2023-03-31T02:49:47;17.15;;;4.43;;
37647;SDS011;23490;53.656;10.076;2023-03-31T02:57:57;14.90;;;4.55;;
37647;SDS011;23490;53.656;10.076;2023-03-31T03:11:33;14.98;;;3.97;;
37647;SDS011;23490;53.656;10.076;2023-03-31T03:19:41;18.27;;;5.00;;
37647;SDS011;23490;53.656;10.076;2023-03-31T03:22:07;15.73;;;4.60;;
37647;SDS011;23490;53.656;10.076;2023-03-31T03:24:33;17.70;;;5.15;;
37647;SDS011;23490;53.656;10.076;2023-03-31T03:27:04;16.90;;;4.55;;
37647;SDS011;23490;53.656;10.076;2023-03-31T03:29:29;15.77;;;4.72;;
37647;SDS011;23490;53.656;10.076;2023-03-31T03:31:55;16.75;;;4.80;;
37647;SDS011;23490;53.656;10.076;2023-03-31T03:34:20;17.20;;;4.85;;
37647;SDS011;23490;53.656;10.076;2023-03-31T03:36:46;15.80;;;4.88;;
37647;SDS011;23490;53.656;10.076;2023-03-31T03:39:11;13.85;;;4.10;;
37647;SDS011;23490;53.656;10.076;2023-03-31T03:41:38;15.98;;;4.25;;
37647;SDS011;23490;53.656;10.076;2023-03-31T03:44:03;14.75;;;4.03;;
37647;SDS011;23490;53.656;10.076;2023-03-31T03:46:30;11.63;;;4.45;;
37647;SDS011;23490;53.656;10.076;2023-03-31T03:48:56;14.23;;;4.90;;
37647;SDS011;23490;53.656;10.076;2023-03-31T03:51:21;18.27;;;4.80;;
37647;SDS011;23490;53.656;10.076;2023-03-31T03:53:47;10.93;;;4.45;;
37647;SDS011;23490;53.656;10.076;2023-03-31T03:56:14;11.82;;;4.18;;
37647;SDS011;23490;53.656;10.076;2023-03-31T03:58:40;15.05;;;4.57;;
37647;SDS011;23490;53.656;10.076;2023-03-31T04:01:05;13.48;;;4.50;;
37647;SDS011;23490;53.656;10.076;2023-03-31T04:03:30;12.05;;;4.45;;
37647;SDS011;23490;53.656;10.076;2023-03-31T04:05:56;15.00;;;4.65;;
37647;SDS011;23490;53.656;10.076;2023-03-31T04:08:23;12.88;;;4.80;;
37647;SDS011;23490;53.656;10.076;2023-03-31T04:10:48;16.17;;;4.55;;
37647;SDS011;23490;53.656;10.076;2023-03-31T04:13:15;13.77;;;4.13;;
37647;SDS011;23490;53.656;10.076;2023-03-31T04:15:41;13.05;;;4.25;;
37647;SDS011;23490;53.656;10.076;2023-03-31T04:18:08;11.90;;;3.83;;
37647;SDS011;23490;53.656;10.076;2023-03-31T04:20:35;11.82;;;4.75;;
37647;SDS011;23490;53.656;10.076;2023-03-31T04:23:02;11.85;;;4.55;;
37647;SDS011;23490;53.656;10.076;2023-03-31T04:25:30;9.70;;;4.25;;
37647;SDS011;23490;53.656;10.076;2023-03-31T04:27:55;15.70;;;5.38;;
37647;SDS011;23490;53.656;10.076;2023-03-31T04:30:22;15.20;;;4.60;;
37647;SDS011;23490;53.656;10.076;2023-03-31T04:32:58;13.43;;;4.93;;
37647;SDS011;23490;53.656;10.076;2023-03-31T04:38:13;14.00;;;5.10;;
37647;SDS011;23490;53.656;10.076;2023-03-31T04:40:46;18.02;;;5.75;;
37647;SDS011;23490;53.656;10.076;2023-03-31T04:43:12;14.85;;;5.50;;
37647;SDS011;23490;53.656;10.076;2023-03-31T04:45:38;14.93;;;5.95;;
37647;SDS011;23490;53.656;10.076;2023-03-31T04:48:03;14.40;;;5.47;;
37647;SDS011;23490;53.656;10.076;2023-03-31T04:50:29;21.30;;;5.93;;
37647;SDS011;23490;53.656;10.076;2023-03-31T04:52:55;11.35;;;5.25;;
37647;SDS011;23490;53.656;10.076;2023-03-31T04:55:20;16.75;;;6.00;;
37647;SDS011;23490;53.656;10.076;2023-03-31T04:57:46;17.75;;;5.35;;
37647;SDS011;23490;53.656;10.076;2023-03-31T05:00:11;13.75;;;5.30;;
37647;SDS011;23490;53.656;10.076;2023-03-31T05:02:37;20.75;;;6.22;;
37647;SDS011;23490;53.656;10.076;2023-03-31T05:05:04;13.73;;;6.30;;
37647;SDS011;23490;53.656;10.076;2023-03-31T05:07:30;15.55;;;5.43;;
37647;SDS011;23490;53.656;10.076;2023-03-31T05:09:55;16.35;;;5.53;;
37647;SDS011;23490;53.656;10.076;2023-03-31T05:12:20;15.93;;;6.35;;
37647;SDS011;23490;53.656;10.076;2023-03-31T05:14:47;17.85;;;5.90;;
37647;SDS011;23490;53.656;10.076;2023-03-31T05:17:14;20.08;;;6.65;;
37647;SDS011;23490;53.656;10.076;2023-03-31T05:19:42;14.73;;;5.57;;
37647;SDS011;23490;53.656;10.076;2023-03-31T05:22:08;15.68;;;5.93;;
37647;SDS011;23490;53.656;10.076;2023-03-31T05:24:34;16.73;;;6.10;;
37647;SDS011;23490;53.656;10.076;2023-03-31T05:26:59;20.90;;;6.20;;
37647;SDS011;23490;53.656;10.076;2023-03-31T05:29:25;17.55;;;6.43;;
37647;SDS011;23490;53.656;10.076;2023-03-31T05:31:50;15.40;;;6.25;;
37647;SDS011;23490;53.656;10.076;2023-03-31T05:34:17;19.20;;;6.82;;
37647;SDS011;23490;53.656;10.076;2023-03-31T05:36:44;15.43;;;5.85;;
37647;SDS011;23490;53.656;10.076;2023-03-31T05:39:12;18.50;;;6.40;;
37647;SDS011;23490;53.656;10.076;2023-03-31T05:41:39;16.70;;;6.35;;
37647;SDS011;23490;53.656;10.076;2023-03-31T05:44:05;18.45;;;5.85;;
37647;SDS011;23490;53.656;10.076;2023-03-31T05:46:32;15.30;;;6.20;;
37647;SDS011;23490;53.656;10.076;2023-03-31T05:48:57;21.25;;;6.80;;
37647;SDS011;23490;53.656;10.076;2023-03-31T05:51:23;20.23;;;5.93;;
37647;SDS011;23490;53.656;10.076;2023-03-31T05:53:49;16.83;;;6.10;;
37647;SDS011;23490;53.656;10.076;2023-03-31T05:56:16;13.90;;;6.65;;
37647;SDS011;23490;53.656;10.076;2023-03-31T05:58:41;13.23;;;6.97;;
37647;SDS011;23490;53.656;10.076;2023-03-31T06:01:08;16.55;;;6.88;;
37647;SDS011;23490;53.656;10.076;2023-03-31T06:03:40;14.10;;;6.35;;
37647;SDS011;23490;53.656;10.076;2023-03-31T06:06:06;12.77;;;6.30;;
37647;SDS011;23490;53.656;10.076;2023-03-31T06:08:34;18.33;;;6.80;;
37647;SDS011;23490;53.656;10.076;2023-03-31T06:11:06;14.98;;;5.75;;
37647;SDS011;23490;53.656;10.076;2023-03-31T06:13:34;19.77;;;6.13;;
37647;SDS011;23490;53.656;10.076;2023-03-31T06:16:00;13.70;;;5.85;;
37647;SDS011;23490;53.656;10.076;2023-03-31T06:18:27;21.13;;;7.30;;
37647;SDS011;23490;53.656;10.076;2023-03-31T06:20:54;13.07;;;5.53;;
37647;SDS011;23490;53.656;10.076;2023-03-31T06:23:20;19.70;;;6.55;;
37647;SDS011;23490;53.656;10.076;2023-03-31T06:25:46;11.23;;;5.22;;
37647;SDS011;23490;53.656;10.076;2023-03-31T06:28:14;18.10;;;5.47;;
37647;SDS011;23490;53.656;10.076;2023-03-31T06:30:40;14.32;;;5.22;;
37647;SDS011;23490;53.656;10.076;2023-03-31T06:33:05;11.18;;;5.05;;
37647;SDS011;23490;53.656;10.076;2023-03-31T06:35:32;17.40;;;4.82;;
37647;SDS011;23490;53.656;10.076;2023-03-31T06:37:59;11.18;;;4.60;;
37647;SDS011;23490;53.656;10.076;2023-03-31T06:40:25;14.55;;;5.07;;
37647;SDS011;23490;53.656;10.076;2023-03-31T06:42:50;11.35;;;4.75;;
37647;SDS011;23490;53.656;10.076;2023-03-31T06:45:17;13.35;;;6.00;;
37647;SDS011;23490;53.656;10.076;2023-03-31T06:47:42;18.20;;;5.65;;
37647;SDS011;23490;53.656;10.076;2023-03-31T06:50:09;16.20;;;5.47;;
37647;SDS011;23490;53.656;10.076;2023-03-31T06:52:35;11.80;;;4.68;;
37647;SDS011;23490;53.656;10.076;2023-03-31T06:55:02;11.63;;;5.13;;
37647;SDS011;23490;53.656;10.076;2023-03-31T06:57:28;11.85;;;4.20;;
37647;SDS011;23490;53.656;10.076;2023-03-31T06:59:54;19.90;;;5.90;;
37647;SDS011;23490;53.656;10.076;2023-03-31T07:02:19;13.38;;;5.03;;
37647;SDS011;23490;53.656;10.076;2023-03-31T07:04:45;15.93;;;4.63;;
37647;SDS011;23490;53.656;10.076;2023-03-31T07:07:10;11.75;;;4.57;;
37647;SDS011;23490;53.656;10.076;2023-03-31T07:09:36;13.15;;;4.93;;
37647;SDS011;23490;53.656;10.076;2023-03-31T07:12:03;13.10;;;4.80;;
37647;SDS011;23490;53.656;10.076;2023-03-31T07:14:29;14.40;;;5.43;;
37647;SDS011;23490;53.656;10.076;2023-03-31T07:16:55;12.98;;;4.32;;
37647;SDS011;23490;53.656;10.076;2023-03-31T07:19:22;14.68;;;5.32;;
37647;SDS011;23490;53.656;10.076;2023-03-31T07:21:48;12.38;;;5.00;;
37647;SDS011;23490;53.656;10.076;2023-03-31T07:24:15;12.68;;;5.05;;
37647;SDS011;23490;53.656;10.076;2023-03-31T07:26:41;12.52;;;4.78;;
37647;SDS011;23490;53.656;10.076;2023-03-31T07:29:07;13.57;;;5.18;;
37647;SDS011;23490;53.656;10.076;2023-03-31T07:31:35;15.50;;;5.43;;
37647;SDS011;23490;53.656;10.076;2023-03-31T07:34:02;13.13;;;4.90;;
37647;SDS011;23490;53.656;10.076;2023-03-31T07:36:28;15.98;;;5.20;;
37647;SDS011;23490;53.656;10.076;2023-03-31T07:38:55;12.38;;;4.70;;
37647;SDS011;23490;53.656;10.076;2023-03-31T07:41:21;14.10;;;4.25;;
37647;SDS011;23490;53.656;10.076;2023-03-31T07:43:47;13.63;;;4.43;;
37647;SDS011;23490;53.656;10.076;2023-03-31T07:46:20;10.63;;;4.43;;
37647;SDS011;23490;53.656;10.076;2023-03-31T07:48:52;10.63;;;4.15;;
37647;SDS011;23490;53.656;10.076;2023-03-31T07:51:20;9.75;;;4.20;;
37647;SDS011;23490;53.656;10.076;2023-03-31T07:53:48;12.45;;;4.50;;
37647;SDS011;23490;53.656;10.076;2023-03-31T07:56:16;10.77;;;4.47;;
37647;SDS011;23490;53.656;10.076;2023-03-31T07:58:42;12.68;;;5.07;;
37647;SDS011;23490;53.656;10.076;2023-03-31T08:01:12;10.52;;;5.28;;
37647;SDS011;23490;53.656;10.076;2023-03-31T08:03:41;13.75;;;4.70;;
37647;SDS011;23490;53.656;10.076;2023-03-31T08:06:07;11.85;;;4.25;;
37647;SDS011;23490;53.656;10.076;2023-03-31T08:08:35;11.57;;;4.65;;
37647;SDS011;23490;53.656;10.076;2023-03-31T08:11:02;13.50;;;5.05;;
37647;SDS011;23490;53.656;10.076;2023-03-31T08:13:28;12.45;;;5.13;;
37647;SDS011;23490;53.656;10.076;2023-03-31T08:15:55;13.20;;;4.57;;
37647;SDS011;23490;53.656;10.076;2023-03-31T08:18:20;14.60;;;5.10;;
37647;SDS011;23490;53.656;10.076;2023-03-31T08:20:46;11.18;;;4.50;;
37647;SDS011;23490;53.656;10.076;2023-03-31T08:23:13;9.90;;;4.85;;
37647;SDS011;23490;53.656;10.076;2023-03-31T08:25:39;14.50;;;4.70;;
37647;SDS011;23490;53.656;10.076;2023-03-31T08:28:06;12.35;;;4.50;;
37647;SDS011;23490;53.656;10.076;2023-03-31T08:30:37;10.02;;;4.85;;
37647;SDS011;23490;53.656;10.076;2023-03-31T08:33:07;8.75;;;3.50;;
37647;SDS011;23490;53.656;10.076;2023-03-31T08:35:36;10.70;;;4.40;;
37647;SDS011;23490;53.656;10.076;2023-03-31T08:38:02;9.48;;;4.10;;
37647;SDS011;23490;53.656;10.076;2023-03-31T08:40:27;9.25;;;4.18;;
37647;SDS011;23490;53.656;10.076;2023-03-31T08:42:56;9.65;;;4.03;;
37647;SDS011;23490;53.656;10.076;2023-03-31T08:45:46;9.35;;;4.32;;
37647;SDS011;23490;53.656;10.076;2023-03-31T08:48:25;12.80;;;4.50;;
37647;SDS011;23490;53.656;10.076;2023-03-31T08:51:02;10.80;;;3.95;;
37647;SDS011;23490;53.656;10.076;2023-03-31T08:53:32;9.50;;;4.78;;
37647;SDS011;23490;53.656;10.076;2023-03-31T08:56:03;12.68;;;5.43;;
37647;SDS011;23490;53.656;10.076;2023-03-31T08:58:35;13.48;;;5.43;;
37647;SDS011;23490;53.656;10.076;2023-03-31T09:01:07;9.93;;;5.18;;
37647;SDS011;23490;53.656;10.076;2023-03-31T09:03:46;11.57;;;5.55;;
37647;SDS011;23490;53.656;10.076;2023-03-31T09:06:18;12.30;;;5.25;;
37647;SDS011;23490;53.656;10.076;2023-03-31T09:08:49;14.82;;;5.60;;
37647;SDS011;23490;53.656;10.076;2023-03-31T09:20:02;8.60;;;4.53;;
37647;SDS011;23490;53.656;10.076;2023-03-31T09:22:38;11.70;;;4.32;;
37647;SDS011;23490;53.656;10.076;2023-03-31T09:25:25;8.18;;;4.25;;
37647;SDS011;23490;53.656;10.076;2023-03-31T09:27:54;7.95;;;4.20;;
37647;SDS011;23490;53.656;10.076;2023-03-31T09:30:27;8.57;;;3.75;;
37647;SDS011;23490;53.656;10.076;2023-03-31T09:33:41;12.07;;;3.55;;
37647;SDS011;23490;53.656;10.076;2023-03-31T09:35:47;7.55;;;3.00;;
37647;SDS011;23490;53.656;10.076;2023-03-31T09:38:14;7.15;;;3.95;;
37647;SDS011;23490;53.656;10.076;2023-03-31T09:40:40;9.85;;;4.18;;
37647;SDS011;23490;53.656;10.076;2023-03-31T09:43:23;9.30;;;4.00;;
37647;SDS011;23490;53.656;10.076;2023-03-31T09:45:51;8.88;;;3.92;;
37647;SDS011;23490;53.656;10.076;2023-03-31T09:48:28;7.40;;;3.40;;
37647;SDS011;23490;53.656;10.076;2023-03-31T09:51:02;9.30;;;3.95;;
37647;SDS011;23490;53.656;10.076;2023-03-31T09:56:20;8.70;;;3.72;;
37647;SDS011;23490;53.656;10.076;2023-03-31T09:59:00;8.27;;;3.80;;
37647;SDS011;23490;53.656;10.076;2023-03-31T10:01:27;8.45;;;3.83;;
37647;SDS011;23490;53.656;10.076;2023-03-31T10:03:53;8.18;;;3.70;;
37647;SDS011;23490;53.656;10.076;2023-03-31T10:06:21;7.00;;;3.45;;
37647;SDS011;23490;53.656;10.076;2023-03-31T10:08:50;9.45;;;3.40;;
37647;SDS011;23490;53.656;10.076;2023-03-31T10:11:20;6.28;;;2.95;;
37647;SDS011;23490;53.656;10.076;2023-03-31T10:13:47;7.53;;;3.88;;
37647;SDS011;23490;53.656;10.076;2023-03-31T10:19:15;7.23;;;3.50;;
37647;SDS011;23490;53.656;10.076;2023-03-31T10:21:46;8.13;;;3.63;;
37647;SDS011;23490;53.656;10.076;2023-03-31T10:24:17;6.97;;;3.45;;
37647;SDS011;23490;53.656;10.076;2023-03-31T10:26:45;10.23;;;3.50;;
37647;SDS011;23490;53.656;10.076;2023-03-31T10:29:14;8.18;;;3.95;;
37647;SDS011;23490;53.656;10.076;2023-03-31T10:31:49;8.70;;;3.80;;
37647;SDS011;23490;53.656;10.076;2023-03-31T10:34:15;8.73;;;3.33;;
37647;SDS011;23490;53.656;10.076;2023-03-31T10:36:47;9.32;;;3.75;;
37647;SDS011;23490;53.656;10.076;2023-03-31T10:39:16;7.40;;;3.38;;
37647;SDS011;23490;53.656;10.076;2023-03-31T10:41:43;7.35;;;3.83;;
37647;SDS011;23490;53.656;10.076;2023-03-31T10:49:39;10.73;;;4.00;;
37647;SDS011;23490;53.656;10.076;2023-03-31T10:54:45;7.10;;;3.65;;
37647;SDS011;23490;53.656;10.076;2023-03-31T10:57:38;8.73;;;3.80;;
37647;SDS011;23490;53.656;10.076;2023-03-31T11:00:11;9.00;;;3.70;;
37647;SDS011;23490;53.656;10.076;2023-03-31T11:06:09;7.70;;;3.90;;
37647;SDS011;23490;53.656;10.076;2023-03-31T11:09:15;7.10;;;3.35;;
37647;SDS011;23490;53.656;10.076;2023-03-31T11:12:17;6.07;;;3.20;;
37647;SDS011;23490;53.656;10.076;2023-03-31T11:20:48;7.15;;;3.35;;
37647;SDS011;23490;53.656;10.076;2023-03-31T11:23:34;4.70;;;2.70;;
37647;SDS011;23490;53.656;10.076;2023-03-31T11:26:33;8.70;;;3.45;;
37647;SDS011;23490;53.656;10.076;2023-03-31T11:31:55;5.72;;;3.00;;
37647;SDS011;23490;53.656;10.076;2023-03-31T11:34:29;7.53;;;3.17;;
37647;SDS011;23490;53.656;10.076;2023-03-31T11:37:10;5.78;;;2.50;;
37647;SDS011;23490;53.656;10.076;2023-03-31T11:40:13;6.88;;;2.78;;
37647;SDS011;23490;53.656;10.076;2023-03-31T11:43:06;6.07;;;2.20;;
37647;SDS011;23490;53.656;10.076;2023-03-31T11:45:45;4.88;;;2.30;;
37647;SDS011;23490;53.656;10.076;2023-03-31T11:48:39;6.45;;;2.60;;
37647;SDS011;23490;53.656;10.076;2023-03-31T11:51:33;6.22;;;2.33;;
37647;SDS011;23490;53.656;10.076;2023-03-31T11:54:03;6.95;;;3.03;;
37647;SDS011;23490;53.656;10.076;2023-03-31T11:56:37;4.18;;;2.08;;
37647;SDS011;23490;53.656;10.076;2023-03-31T11:59:05;7.30;;;2.33;;
37647;SDS011;23490;53.656;10.076;2023-03-31T12:07:03;5.43;;;2.05;;
37647;SDS011;23490;53.656;10.076;2023-03-31T12:12:20;7.07;;;2.30;;
37647;SDS011;23490;53.656;10.076;2023-03-31T12:14:59;7.10;;;2.53;;
37647;SDS011;23490;53.656;10.076;2023-03-31T12:17:34;5.63;;;2.10;;
37647;SDS011;23490;53.656;10.076;2023-03-31T12:20:04;6.30;;;2.22;;
37647;SDS011;23490;53.656;10.076;2023-03-31T12:22:44;5.43;;;2.00;;
37647;SDS011;23490;53.656;10.076;2023-03-31T12:25:15;5.38;;;1.73;;
37647;SDS011;23490;53.656;10.076;2023-03-31T12:27:46;5.80;;;1.88;;
37647;SDS011;23490;53.656;10.076;2023-03-31T12:33:09;4.47;;;1.80;;
37647;SDS011;23490;53.656;10.076;2023-03-31T12:35:44;2.25;;;1.52;;
37647;SDS011;23490;53.656;10.076;2023-03-31T12:38:26;3.50;;;1.95;;
37647;SDS011;23490;53.656;10.076;2023-03-31T12:46:52;4.20;;;2.00;;
37647;SDS011;23490;53.656;10.076;2023-03-31T12:50:02;6.63;;;2.05;;
37647;SDS011;23490;53.656;10.076;2023-03-31T13:03:41;5.85;;;2.83;;
37647;SDS011;23490;53.656;10.076;2023-03-31T13:11:51;5.22;;;3.05;;
37647;SDS011;23490;53.656;10.076;2023-03-31T13:14:27;7.97;;;3.60;;
37647;SDS011;23490;53.656;10.076;2023-03-31T13:17:34;7.78;;;3.10;;
37647;SDS011;23490;53.656;10.076;2023-03-31T13:22:48;6.13;;;3.20;;
37647;SDS011;23490;53.656;10.076;2023-03-31T13:27:55;7.72;;;3.30;;
37647;SDS011;23490;53.656;10.076;2023-03-31T13:30:44;5.63;;;3.30;;
37647;SDS011;23490;53.656;10.076;2023-03-31T13:36:05;5.97;;;3.03;;
37647;SDS011;23490;53.656;10.076;2023-03-31T13:44:35;6.43;;;3.10;;
37647;SDS011;23490;53.656;10.076;2023-03-31T13:50:37;9.63;;;3.83;;
37647;SDS011;23490;53.656;10.076;2023-03-31T13:53:24;7.25;;;3.30;;
37647;SDS011;23490;53.656;10.076;2023-03-31T13:56:07;6.15;;;3.20;;
37647;SDS011;23490;53.656;10.076;2023-03-31T14:01:52;7.90;;;3.20;;
37647;SDS011;23490;53.656;10.076;2023-03-31T14:04:45;6.85;;;3.30;;
37647;SDS011;23490;53.656;10.076;2023-03-31T14:09:58;6.88;;;3.28;;
37647;SDS011;23490;53.656;10.076;2023-03-31T14:14:52;4.75;;;2.90;;
37647;SDS011;23490;53.656;10.076;2023-03-31T14:17:18;10.57;;;3.42;;
37647;SDS011;23490;53.656;10.076;2023-03-31T14:22:40;6.50;;;3.20;;
37647;SDS011;23490;53.656;10.076;2023-03-31T14:28:40;6.30;;;3.00;;
37647;SDS011;23490;53.656;10.076;2023-03-31T14:31:22;7.35;;;3.45;;
37647;SDS011;23490;53.656;10.076;2023-03-31T14:39:23;5.57;;;3.30;;
37647;SDS011;23490;53.656;10.076;2023-03-31T14:42:04;6.00;;;3.08;;
37647;SDS011;23490;53.656;10.076;2023-03-31T14:44:40;6.82;;;2.97;;
37647;SDS011;23490;53.656;10.076;2023-03-31T14:47:22;5.70;;;2.67;;
37647;SDS011;23490;53.656;10.076;2023-03-31T14:50:28;5.05;;;2.53;;
37647;SDS011;23490;53.656;10.076;2023-03-31T14:52:47;7.78;;;2.90;;
37647;SDS011;23490;53.656;10.076;2023-03-31T14:55:14;3.90;;;2.40;;
37647;SDS011;23490;53.656;10.076;2023-03-31T14:57:40;6.25;;;2.90;;
37647;SDS011;23490;53.656;10.076;2023-03-31T15:00:10;4.68;;;2.30;;
37647;SDS011;23490;53.656;10.076;2023-03-31T15:02:40;4.68;;;2.38;;
37647;SDS011;23490;53.656;10.076;2023-03-31T15:05:07;3.70;;;2.13;;
37647;SDS011;23490;53.656;10.076;2023-03-31T15:07:43;3.55;;;1.70;;
37647;SDS011;23490;53.656;10.076;2023-03-31T15:10:12;4.22;;;2.45;;
37647;SDS011;23490;53.656;10.076;2023-03-31T15:12:43;3.60;;;1.88;;
37647;SDS011;23490;53.656;10.076;2023-03-31T15:15:09;5.07;;;2.08;;
37647;SDS011;23490;53.656;10.076;2023-03-31T15:17:37;3.35;;;2.00;;
37647;SDS011;23490;53.656;10.076;2023-03-31T15:22:53;4.00;;;2.10;;
37647;SDS011;23490;53.656;10.076;2023-03-31T15:25:39;5.55;;;2.33;;
37647;SDS011;23490;53.656;10.076;2023-03-31T15:28:08;4.70;;;2.30;;
37647;SDS011;23490;53.656;10.076;2023-03-31T15:30:38;5.38;;;2.55;;
37647;SDS011;23490;53.656;10.076;2023-03-31T15:33:07;5.38;;;2.72;;
37647;SDS011;23490;53.656;10.076;2023-03-31T15:35:40;3.65;;;1.95;;
37647;SDS011;23490;53.656;10.076;2023-03-31T15:38:08;4.35;;;2.42;;
37647;SDS011;23490;53.656;10.076;2023-03-31T15:40:37;3.78;;;2.10;;
37647;SDS011;23490;53.656;10.076;2023-03-31T15:43:08;3.97;;;2.13;;
37647;SDS011;23490;53.656;10.076;2023-03-31T15:45:48;3.20;;;1.90;;
37647;SDS011;23490;53.656;10.076;2023-03-31T15:48:17;3.67;;;1.98;;
37647;SDS011;23490;53.656;10.076;2023-03-31T15:50:43;3.00;;;1.67;;
37647;SDS011;23490;53.656;10.076;2023-03-31T15:53:29;2.60;;;1.58;;
37647;SDS011;23490;53.656;10.076;2023-03-31T15:58:46;3.35;;;1.70;;
37647;SDS011;23490;53.656;10.076;2023-03-31T16:01:22;2.47;;;1.30;;
37647;SDS011;23490;53.656;10.076;2023-03-31T16:03:53;3.22;;;1.58;;
37647;SDS011;23490;53.656;10.076;2023-03-31T16:08:49;2.53;;;1.38;;
37647;SDS011;23490;53.656;10.076;2023-03-31T16:11:26;4.50;;;1.60;;
37647;SDS011;23490;53.656;10.076;2023-03-31T16:13:58;2.53;;;1.50;;
37647;SDS011;23490;53.656;10.076;2023-03-31T16:16:30;3.10;;;1.40;;
37647;SDS011;23490;53.656;10.076;2023-03-31T16:19:01;4.68;;;1.60;;
37647;SDS011;23490;53.656;10.076;2023-03-31T16:21:33;4.03;;;1.90;;
37647;SDS011;23490;53.656;10.076;2023-03-31T16:24:03;2.67;;;1.10;;
37647;SDS011;23490;53.656;10.076;2023-03-31T16:26:29;3.17;;;1.60;;
37647;SDS011;23490;53.656;10.076;2023-03-31T16:28:55;2.92;;;1.42;;
37647;SDS011;23490;53.656;10.076;2023-03-31T16:31:29;3.78;;;1.58;;
37647;SDS011;23490;53.656;10.076;2023-03-31T16:34:04;4.20;;;1.65;;
37647;SDS011;23490;53.656;10.076;2023-03-31T16:36:31;3.25;;;1.33;;
37647;SDS011;23490;53.656;10.076;2023-03-31T16:38:56;4.18;;;1.40;;
37647;SDS011;23490;53.656;10.076;2023-03-31T16:41:23;5.15;;;1.52;;
37647;SDS011;23490;53.656;10.076;2023-03-31T16:43:52;4.28;;;1.65;;
37647;SDS011;23490;53.656;10.076;2023-03-31T16:46:18;3.13;;;1.42;;
37647;SDS011;23490;53.656;10.076;2023-03-31T16:48:44;4.50;;;2.00;;
37647;SDS011;23490;53.656;10.076;2023-03-31T16:51:09;6.18;;;1.77;;
37647;SDS011;23490;53.656;10.076;2023-03-31T16:53:35;3.65;;;1.77;;
37647;SDS011;23490;53.656;10.076;2023-03-31T16:56:03;4.55;;;2.30;;
37647;SDS011;23490;53.656;10.076;2023-03-31T16:58:32;6.93;;;1.58;;
37647;SDS011;23490;53.656;10.076;2023-03-31T17:00:58;4.97;;;1.50;;
37647;SDS011;23490;53.656;10.076;2023-03-31T17:03:24;5.05;;;1.70;;
37647;SDS011;23490;53.656;10.076;2023-03-31T17:05:52;3.65;;;1.60;;
37647;SDS011;23490;53.656;10.076;2023-03-31T17:08:19;4.80;;;1.75;;
37647;SDS011;23490;53.656;10.076;2023-03-31T17:10:53;4.13;;;1.90;;
37647;SDS011;23490;53.656;10.076;2023-03-31T17:13:23;4.10;;;2.10;;
37647;SDS011;23490;53.656;10.076;2023-03-31T17:15:49;3.85;;;2.00;;
37647;SDS011;23490;53.656;10.076;2023-03-31T17:18:15;5.03;;;1.70;;
37647;SDS011;23490;53.656;10.076;2023-03-31T17:20:41;4.55;;;2.20;;
37647;SDS011;23490;53.656;10.076;2023-03-31T17:23:08;4.70;;;2.83;;
37647;SDS011;23490;53.656;10.076;2023-03-31T17:25:33;5.97;;;2.00;;
37647;SDS011;23490;53.656;10.076;2023-03-31T17:28:00;5.88;;;2.13;;